Time;durP1;ratioP1;P1;durP2;ratioP2;P2;SDS_P1;SDS_P2;PMS_P1;PMS_P2;Temp;Humidity;BMP_temperature;BMP_pressure;BME280_temperature;BME280_humidity;BME280_pressure;Samples;Min_cycle;Max_cycle;Signal;HPM_P1;HPM_P2
2021/11/15 00:02:20;;;;;;;70.20;50.50;;;9.10;99.40;;;;;;4906261;29;20060;-80
2021/11/15 00:04:46;;;;;;;75.93;49.80;;;9.10;99.40;;;;;;4889288;29;20509;-82
2021/11/15 00:07:13;;;;;;;72.27;50.30;;;9.10;99.30;;;;;;4906708;29;20131;-82
2021/11/15 00:09:42;;;;;;;69.43;48.80;;;9.10;99.10;;;;;;4906494;29;20402;-83
2021/11/15 00:12:08;;;;;;;75.67;51.47;;;9.10;99.00;;;;;;4907190;29;20051;-84
2021/11/15 00:14:34;;;;;;;68.20;49.67;;;9.10;99.10;;;;;;4906940;29;20036;-84
2021/11/15 00:17:00;;;;;;;75.43;51.60;;;9.00;98.60;;;;;;4905949;29;20044;-85
2021/11/15 00:19:25;;;;;;;73.07;51.33;;;9.00;98.90;;;;;;4905905;29;20128;-86
2021/11/15 00:21:51;;;;;;;71.67;50.60;;;9.00;98.40;;;;;;4905735;29;20116;-86
2021/11/15 00:24:17;;;;;;;71.10;49.83;;;8.90;98.40;;;;;;4906355;29;20112;-86
2021/11/15 00:26:43;;;;;;;73.97;51.10;;;9.00;98.60;;;;;;4905327;29;20044;-86
2021/11/15 00:29:08;;;;;;;72.43;51.23;;;9.00;98.50;;;;;;4890538;29;20068;-85
2021/11/15 00:31:34;;;;;;;75.53;52.50;;;9.00;98.70;;;;;;4906163;29;20041;-86
2021/11/15 00:34:00;;;;;;;71.97;51.57;;;9.00;98.70;;;;;;4904325;29;20051;-85
2021/11/15 00:36:26;;;;;;;77.53;53.07;;;9.00;98.60;;;;;;4888898;29;20087;-84
2021/11/15 00:38:51;;;;;;;76.73;52.47;;;8.90;98.50;;;;;;4904131;29;20040;-85
2021/11/15 00:41:17;;;;;;;80.30;54.20;;;8.90;98.20;;;;;;4904542;29;20064;-83
2021/11/15 00:43:43;;;;;;;71.80;50.97;;;8.90;98.50;;;;;;4904149;29;20125;-84
2021/11/15 00:46:09;;;;;;;77.40;51.17;;;8.90;98.60;;;;;;4906485;29;20029;-83
2021/11/15 00:48:36;;;;;;;73.87;50.83;;;8.90;98.60;;;;;;4905534;29;20123;-83
2021/11/15 00:51:02;;;;;;;69.50;48.90;;;8.90;98.50;;;;;;4905276;29;20044;-84
2021/11/15 00:53:28;;;;;;;72.13;50.10;;;8.90;98.50;;;;;;4890279;29;20045;-84
2021/11/15 00:55:56;;;;;;;72.23;50.63;;;8.90;98.30;;;;;;4908404;29;20059;-84
2021/11/15 00:58:21;;;;;;;73.63;49.63;;;8.80;98.20;;;;;;4908308;29;20103;-84
2021/11/15 01:00:47;;;;;;;75.57;49.00;;;8.80;98.20;;;;;;4890409;29;20084;-85
2021/11/15 01:03:14;;;;;;;72.90;49.87;;;8.80;98.40;;;;;;4905012;29;20505;-83
2021/11/15 01:05:47;;;;;;;71.20;47.80;;;8.80;98.50;;;;;;4904317;29;20393;-82
2021/11/15 01:08:13;;;;;;;72.85;50.10;;;8.80;98.20;;;;;;4904201;29;20041;-83
2021/11/15 01:10:39;;;;;;;81.23;52.43;;;8.80;98.50;;;;;;4903675;29;20068;-82
2021/11/15 01:13:04;;;;;;;75.47;48.23;;;8.80;98.20;;;;;;4904585;29;20055;-84
2021/11/15 01:15:32;;;;;;;68.03;45.33;;;8.80;98.30;;;;;;4888134;29;20061;-82
2021/11/15 01:17:58;;;;;;;68.87;45.37;;;8.80;98.40;;;;;;4905225;29;20082;-80
2021/11/15 01:20:30;;;;;;;65.23;43.50;;;8.80;98.40;;;;;;4903912;29;20033;-82
2021/11/15 01:22:57;;;;;;;63.83;43.45;;;8.80;98.40;;;;;;4902591;29;20049;-81
2021/11/15 01:25:22;;;;;;;65.80;44.40;;;8.80;98.60;;;;;;4903758;29;20088;-82
2021/11/15 01:27:48;;;;;;;61.63;41.43;;;8.70;98.30;;;;;;4904571;29;20434;-81
2021/11/15 01:30:16;;;;;;;63.10;41.00;;;8.80;98.40;;;;;;4904461;29;20044;-82
2021/11/15 01:32:43;;;;;;;59.53;40.20;;;8.80;98.40;;;;;;4905888;29;20036;-82
2021/11/15 01:35:09;;;;;;;60.13;39.87;;;8.80;98.40;;;;;;4903788;29;20056;-83
2021/11/15 01:37:37;;;;;;;62.77;41.00;;;8.80;98.30;;;;;;4904526;29;20151;-83
2021/11/15 01:40:05;;;;;;;58.87;40.73;;;8.80;98.40;;;;;;4904943;29;20112;-82
2021/11/15 01:42:30;;;;;;;59.43;40.40;;;8.80;98.20;;;;;;4906883;29;20100;-84
2021/11/15 01:44:56;;;;;;;63.17;41.83;;;8.70;98.10;;;;;;4906459;29;20074;-83
2021/11/15 01:47:22;;;;;;;57.23;39.20;;;8.70;98.40;;;;;;4906226;29;20071;-81
2021/11/15 01:49:48;;;;;;;63.00;40.57;;;8.70;98.40;;;;;;4889223;29;20083;-83
2021/11/15 01:52:14;;;;;;;61.60;41.83;;;8.70;98.30;;;;;;4903149;29;20515;-82
2021/11/15 01:54:40;;;;;;;64.47;43.90;;;8.70;98.10;;;;;;4903601;29;20037;-82
2021/11/15 01:57:06;;;;;;;59.60;41.50;;;8.60;98.10;;;;;;4903504;29;20048;-82
2021/11/15 01:59:31;;;;;;;62.43;43.53;;;8.60;98.20;;;;;;4903339;29;20060;-80
2021/11/15 02:01:57;;;;;;;59.10;40.07;;;8.60;98.30;;;;;;4902935;29;20493;-83
2021/11/15 02:04:23;;;;;;;61.87;42.33;;;8.60;98.40;;;;;;4903472;29;20037;-85
2021/11/15 02:06:49;;;;;;;53.87;38.23;;;8.70;98.20;;;;;;4903686;29;20032;-81
2021/11/15 02:09:15;;;;;;;61.00;40.30;;;8.70;98.20;;;;;;4905108;29;20036;-83
2021/11/15 02:11:40;;;;;;;54.53;38.20;;;8.70;98.30;;;;;;4905279;29;20044;-82
2021/11/15 02:14:07;;;;;;;58.10;38.47;;;8.60;98.10;;;;;;4903851;29;20525;-83
2021/11/15 02:16:33;;;;;;;53.83;37.50;;;8.70;98.20;;;;;;4905073;29;20049;-83
2021/11/15 02:18:59;;;;;;;53.37;37.37;;;8.70;98.10;;;;;;4897259;29;20622;-77
2021/11/15 02:21:26;;;;;;;51.93;36.97;;;8.70;97.80;;;;;;4898726;29;20116;-77
2021/11/15 02:23:53;;;;;;;51.40;34.57;;;8.60;97.90;;;;;;4881869;29;20044;-77
2021/11/15 02:26:21;;;;;;;52.20;37.33;;;8.70;98.10;;;;;;4897419;29;20059;-78
2021/11/15 02:28:50;;;;;;;54.83;37.73;;;8.70;97.80;;;;;;4897334;29;20040;-77
2021/11/15 02:31:22;;;;;;;52.53;36.97;;;8.70;97.90;;;;;;4896984;29;20041;-77
2021/11/15 02:33:48;;;;;;;51.65;36.20;;;8.70;97.90;;;;;;4898763;29;20032;-77
2021/11/15 02:36:14;;;;;;;53.80;37.50;;;8.70;97.90;;;;;;4896994;29;20039;-76
2021/11/15 02:38:39;;;;;;;51.03;35.90;;;8.80;98.40;;;;;;4896991;29;20127;-76
2021/11/15 02:41:05;;;;;;;50.53;34.87;;;8.80;98.00;;;;;;4896816;29;20052;-77
2021/11/15 02:43:32;;;;;;;46.97;35.33;;;8.80;97.80;;;;;;4883099;29;20040;-78
2021/11/15 02:45:58;;;;;;;49.53;35.93;;;8.70;97.80;;;;;;4882115;29;20079;-78
2021/11/15 02:48:26;;;;;;;53.23;37.00;;;8.80;97.90;;;;;;4897200;29;20033;-78
2021/11/15 02:50:52;;;;;;;49.90;36.23;;;8.80;97.80;;;;;;4883653;29;20486;-79
2021/11/15 02:53:19;;;;;;;47.40;35.00;;;8.90;97.80;;;;;;4900608;29;20477;-80
2021/11/15 02:55:45;;;;;;;46.20;34.07;;;8.80;97.60;;;;;;4900763;29;20521;-78
2021/11/15 02:58:13;;;;;;;51.37;37.53;;;8.90;97.90;;;;;;4901340;29;20051;-79
2021/11/15 03:00:58;;;;;;;53.23;37.10;;;8.90;97.70;;;;;;4901911;29;20037;-79
2021/11/15 03:03:25;;;;;;;49.17;36.03;;;8.80;97.60;;;;;;4901552;29;20056;-79
2021/11/15 03:05:52;;;;;;;49.60;37.03;;;8.80;97.60;;;;;;4900987;29;20041;-78
2021/11/15 03:08:20;;;;;;;51.77;38.07;;;8.60;97.30;;;;;;4901831;29;20033;-79
2021/11/15 03:10:47;;;;;;;53.27;39.03;;;8.60;97.40;;;;;;4886156;29;20052;-78
2021/11/15 03:13:15;;;;;;;53.87;38.27;;;8.50;97.60;;;;;;4885150;29;20048;-77
2021/11/15 03:15:47;;;;;;;53.30;38.13;;;8.60;97.80;;;;;;4900355;29;20053;-78
2021/11/15 03:18:15;;;;;;;52.93;37.50;;;8.60;97.90;;;;;;4901838;29;20033;-78
2021/11/15 03:20:43;;;;;;;63.40;42.10;;;8.60;97.80;;;;;;4900491;29;20032;-79
2021/11/15 03:23:17;;;;;;;57.10;40.50;;;8.70;98.00;;;;;;4899807;29;20048;-77
2021/11/15 03:25:44;;;;;;;58.63;42.13;;;8.70;97.60;;;;;;4900762;29;20572;-78
2021/11/15 03:28:12;;;;;;;58.43;42.73;;;8.60;97.50;;;;;;4901165;29;20036;-78
2021/11/15 03:30:38;;;;;;;58.27;42.07;;;8.60;97.50;;;;;;4885125;29;20060;-77
2021/11/15 03:33:05;;;;;;;64.00;45.20;;;8.50;97.70;;;;;;4900277;29;20052;-78
2021/11/15 03:35:30;;;;;;;61.00;42.77;;;8.50;97.60;;;;;;4902079;29;20041;-78
2021/11/15 03:37:56;;;;;;;59.20;42.97;;;8.40;97.80;;;;;;4900315;29;20044;-78
2021/11/15 03:40:25;;;;;;;59.60;41.67;;;8.40;97.70;;;;;;4899829;29;20033;-78
2021/11/15 03:42:53;;;;;;;59.13;42.10;;;8.40;97.90;;;;;;4899668;29;20037;-78
2021/11/15 03:45:20;;;;;;;62.87;44.70;;;8.40;98.00;;;;;;4900327;29;20068;-82
2021/11/15 03:47:46;;;;;;;64.83;45.73;;;8.40;97.90;;;;;;4899999;29;20113;-78
2021/11/15 03:50:12;;;;;;;62.43;45.33;;;8.40;97.80;;;;;;4884155;29;20033;-78
2021/11/15 03:52:41;;;;;;;68.13;47.60;;;8.40;97.90;;;;;;4884312;29;20040;-78
2021/11/15 03:55:09;;;;;;;67.50;47.80;;;8.40;97.90;;;;;;4899129;29;20076;-78
2021/11/15 03:57:35;;;;;;;73.17;50.57;;;8.40;97.90;;;;;;4899415;29;20040;-78
2021/11/15 04:00:03;;;;;;;69.87;50.17;;;8.40;97.70;;;;;;4883862;29;20037;-76
2021/11/15 04:02:33;;;;;;;71.50;49.57;;;8.40;97.70;;;;;;4897993;29;20509;-77
2021/11/15 04:05:04;;;;;;;76.73;51.27;;;8.40;97.90;;;;;;4884411;29;20040;-77
2021/11/15 04:07:37;;;;;;;73.10;51.20;;;8.30;97.80;;;;;;4884674;29;20040;-77
2021/11/15 04:10:14;;;;;;;76.33;52.77;;;8.30;97.90;;;;;;4899560;29;20484;-78
2021/11/15 04:12:41;;;;;;;74.10;52.77;;;8.30;97.90;;;;;;4899206;29;20040;-78
2021/11/15 04:15:08;;;;;;;80.50;54.83;;;8.30;97.80;;;;;;4883452;29;20052;-78
2021/11/15 04:17:36;;;;;;;76.00;52.50;;;8.30;97.80;;;;;;4883650;29;20422;-78
2021/11/15 04:20:04;;;;;;;84.63;57.97;;;8.20;97.90;;;;;;4900228;29;20447;-77
2021/11/15 04:22:29;;;;;;;89.37;58.83;;;8.20;97.90;;;;;;4882944;29;20052;-77
2021/11/15 04:24:55;;;;;;;80.53;55.40;;;8.20;97.80;;;;;;4883324;29;20522;-76
2021/11/15 04:27:21;;;;;;;86.03;55.77;;;8.20;97.80;;;;;;4882946;29;20045;-76
2021/11/15 04:29:46;;;;;;;80.90;54.90;;;8.20;97.90;;;;;;4883335;29;20041;-76
2021/11/15 04:32:12;;;;;;;81.43;55.77;;;8.30;98.10;;;;;;4883584;29;20051;-78
2021/11/15 04:34:39;;;;;;;80.27;55.70;;;8.30;97.90;;;;;;4899465;29;20551;-78
2021/11/15 04:37:05;;;;;;;82.87;57.40;;;8.40;97.80;;;;;;4900358;29;20055;-78
2021/11/15 04:39:31;;;;;;;86.50;58.40;;;8.30;97.60;;;;;;4882929;29;20041;-76
2021/11/15 04:41:57;;;;;;;88.73;60.97;;;8.30;97.80;;;;;;4898932;29;20040;-77
2021/11/15 04:44:24;;;;;;;83.27;57.97;;;8.30;97.80;;;;;;4884446;29;20041;-78
2021/11/15 04:46:50;;;;;;;83.83;56.90;;;8.30;97.90;;;;;;4899386;29;20143;-77
2021/11/15 04:49:16;;;;;;;80.23;56.67;;;8.30;98.00;;;;;;4884048;29;20045;-76
2021/11/15 04:51:42;;;;;;;78.90;54.90;;;8.30;97.90;;;;;;4886312;29;20055;-76
2021/11/15 04:54:08;;;;;;;72.57;49.57;;;8.40;97.90;;;;;;4901085;29;20481;-77
2021/11/15 04:56:34;;;;;;;79.43;54.37;;;8.40;98.10;;;;;;4900547;29;20045;-77
2021/11/15 04:59:00;;;;;;;79.47;54.37;;;8.50;98.20;;;;;;4899953;29;20036;-75
2021/11/15 05:01:29;;;;;;;79.27;53.43;;;8.50;97.80;;;;;;4885434;29;20063;-81
2021/11/15 05:03:55;;;;;;;73.70;50.90;;;8.50;97.60;;;;;;4900112;29;20115;-74
2021/11/15 05:06:22;;;;;;;83.20;55.80;;;8.50;97.80;;;;;;4898191;29;20509;-76
2021/11/15 05:08:48;;;;;;;83.17;54.53;;;8.50;97.70;;;;;;4883422;29;20032;-75
2021/11/15 05:11:14;;;;;;;81.10;53.03;;;8.40;97.50;;;;;;4882986;29;20196;-78
2021/11/15 05:13:42;;;;;;;87.33;58.80;;;8.40;97.80;;;;;;4899863;29;20041;-78
2021/11/15 05:16:07;;;;;;;87.13;59.60;;;8.30;97.50;;;;;;4900322;29;20481;-77
2021/11/15 05:18:33;;;;;;;84.80;57.87;;;8.30;97.50;;;;;;4882735;29;20053;-75
2021/11/15 05:20:59;;;;;;;94.60;61.20;;;8.20;97.60;;;;;;4898341;29;20067;-75
2021/11/15 05:23:26;;;;;;;87.63;59.83;;;8.20;97.70;;;;;;4898980;29;20055;-78
2021/11/15 05:25:51;;;;;;;90.87;58.40;;;8.20;97.90;;;;;;4899181;29;20041;-78
2021/11/15 05:28:17;;;;;;;87.30;57.40;;;8.30;98.10;;;;;;4897969;29;20127;-78
2021/11/15 05:30:43;;;;;;;90.90;59.17;;;8.30;98.10;;;;;;4881860;29;20064;-78
2021/11/15 05:33:09;;;;;;;86.30;55.73;;;8.20;97.90;;;;;;4898119;29;20597;-76
2021/11/15 05:35:34;;;;;;;86.37;56.37;;;8.30;98.20;;;;;;4899299;29;20116;-77
2021/11/15 05:38:00;;;;;;;86.67;56.37;;;8.30;98.30;;;;;;4882121;29;20048;-78
2021/11/15 05:40:26;;;;;;;93.60;59.63;;;8.30;98.20;;;;;;4882501;29;20043;-77
2021/11/15 05:42:53;;;;;;;98.23;62.33;;;8.40;98.40;;;;;;4898529;29;20047;-78
2021/11/15 05:45:21;;;;;;;92.37;60.67;;;8.40;97.90;;;;;;4883275;29;20371;-77
2021/11/15 05:47:47;;;;;;;103.57;65.10;;;8.40;98.10;;;;;;4899508;29;20033;-77
2021/11/15 05:50:14;;;;;;;98.63;64.47;;;8.30;97.60;;;;;;4897919;29;20062;-77
2021/11/15 05:52:42;;;;;;;97.67;63.57;;;8.30;97.90;;;;;;4898638;29;20055;-76
2021/11/15 05:55:11;;;;;;;91.70;58.37;;;8.40;98.10;;;;;;4899423;29;20032;-76
2021/11/15 05:57:37;;;;;;;92.27;58.67;;;8.50;98.40;;;;;;4898969;29;20069;-76
2021/11/15 06:00:10;;;;;;;88.03;56.70;;;8.50;98.00;;;;;;4898491;29;20044;-75
2021/11/15 06:02:36;;;;;;;94.17;58.77;;;8.60;98.00;;;;;;4897218;29;20088;-76
2021/11/15 06:05:02;;;;;;;88.53;57.50;;;8.60;97.80;;;;;;4882017;29;20041;-75
2021/11/15 06:07:28;;;;;;;95.37;59.70;;;8.50;97.80;;;;;;4897799;29;20045;-77
2021/11/15 06:09:54;;;;;;;96.03;62.70;;;8.50;97.80;;;;;;4881799;29;20033;-77
2021/11/15 06:12:19;;;;;;;93.70;60.67;;;8.50;97.60;;;;;;4881175;29;20041;-77
2021/11/15 06:14:45;;;;;;;93.33;58.57;;;8.40;97.50;;;;;;4881007;29;20041;-76
2021/11/15 06:17:11;;;;;;;94.73;61.40;;;8.40;97.60;;;;;;4898420;29;20097;-76
2021/11/15 06:19:36;;;;;;;93.07;57.97;;;8.40;97.90;;;;;;4880853;29;20044;-79
2021/11/15 06:22:02;;;;;;;92.73;59.23;;;8.40;97.50;;;;;;4896424;29;20044;-76
2021/11/15 06:24:28;;;;;;;92.77;60.30;;;8.30;97.40;;;;;;4896366;29;20473;-77
2021/11/15 06:26:54;;;;;;;100.93;61.57;;;8.20;97.60;;;;;;4884856;29;20044;-76
2021/11/15 06:29:20;;;;;;;93.20;58.23;;;8.20;97.80;;;;;;4900659;29;20044;-74
2021/11/15 06:31:46;;;;;;;94.37;58.77;;;8.20;98.00;;;;;;4900024;29;20044;-75
2021/11/15 06:34:11;;;;;;;95.57;60.00;;;8.30;98.00;;;;;;4884603;29;20123;-77
2021/11/15 06:36:37;;;;;;;96.57;59.57;;;8.30;98.10;;;;;;4899859;29;20140;-78
2021/11/15 06:39:03;;;;;;;94.60;58.13;;;8.40;98.10;;;;;;4899891;29;20472;-76
2021/11/15 06:41:29;;;;;;;100.97;61.43;;;8.40;98.10;;;;;;4884244;29;20398;-77
2021/11/15 06:43:56;;;;;;;94.23;59.80;;;8.40;97.90;;;;;;4884166;29;20438;-77
2021/11/15 06:46:22;;;;;;;100.20;61.87;;;8.40;97.50;;;;;;4899705;29;20088;-76
2021/11/15 06:48:48;;;;;;;97.83;61.00;;;8.30;97.60;;;;;;4900711;29;20041;-77
2021/11/15 06:51:14;;;;;;;94.00;58.77;;;8.30;97.70;;;;;;4884928;29;20132;-76
2021/11/15 06:53:42;;;;;;;93.30;58.27;;;8.20;97.60;;;;;;4884119;29;20449;-79
2021/11/15 06:56:08;;;;;;;85.87;53.37;;;8.20;97.80;;;;;;4899683;29;20046;-77
2021/11/15 06:58:35;;;;;;;98.33;57.33;;;8.20;97.40;;;;;;4884045;29;20044;-77
2021/11/15 07:01:01;;;;;;;96.03;56.87;;;8.20;97.70;;;;;;4884193;29;20467;-77
2021/11/15 07:03:27;;;;;;;88.73;54.07;;;8.30;97.80;;;;;;4883845;29;20048;-78
2021/11/15 07:05:53;;;;;;;86.53;53.33;;;8.30;97.60;;;;;;4899105;29;20547;-77
2021/11/15 07:08:19;;;;;;;85.80;52.13;;;8.30;97.60;;;;;;4884414;29;20365;-76
2021/11/15 07:10:45;;;;;;;87.50;54.20;;;8.30;97.80;;;;;;4899452;29;20474;-78
2021/11/15 07:13:13;;;;;;;93.20;57.03;;;8.40;97.60;;;;;;4899832;29;20076;-76
2021/11/15 07:15:39;;;;;;;90.90;54.93;;;8.40;97.70;;;;;;4899040;29;20128;-77
2021/11/15 07:18:06;;;;;;;86.00;54.97;;;8.40;98.00;;;;;;4900589;29;20053;-77
2021/11/15 07:20:32;;;;;;;84.00;52.30;;;8.40;97.60;;;;;;4883364;29;20037;-77
2021/11/15 07:22:58;;;;;;;82.87;51.03;;;8.50;97.70;;;;;;4898871;29;20100;-75
2021/11/15 07:25:23;;;;;;;85.00;50.57;;;8.50;97.50;;;;;;4883290;29;20407;-76
2021/11/15 07:27:51;;;;;;;79.43;47.87;;;8.50;97.20;;;;;;4899653;29;20036;-79
2021/11/15 07:30:17;;;;;;;77.13;48.03;;;8.30;97.10;;;;;;4884971;29;20044;-77
2021/11/15 07:32:43;;;;;;;78.53;47.13;;;8.30;97.00;;;;;;4900091;29;20561;-76
2021/11/15 07:35:10;;;;;;;76.57;48.40;;;8.20;96.90;;;;;;4899236;29;20465;-77
2021/11/15 07:37:36;;;;;;;78.57;48.40;;;8.10;97.00;;;;;;4897480;29;20052;-76
2021/11/15 07:40:11;;;;;;;75.40;45.47;;;8.00;97.20;;;;;;4899544;29;20122;-76
2021/11/15 07:42:36;;;;;;;75.93;46.83;;;8.00;97.20;;;;;;4898909;29;20037;-77
2021/11/15 07:45:03;;;;;;;73.00;46.57;;;8.00;97.30;;;;;;4883064;29;20478;-78
2021/11/15 07:47:29;;;;;;;73.63;45.50;;;7.90;97.50;;;;;;4898918;29;20052;-77
2021/11/15 07:49:54;;;;;;;77.47;47.30;;;7.90;97.60;;;;;;4883545;29;20040;-77
2021/11/15 07:52:22;;;;;;;75.97;48.67;;;7.90;97.60;;;;;;4882902;29;20494;-80
2021/11/15 07:54:48;;;;;;;78.83;48.73;;;7.90;97.80;;;;;;4898231;29;20037;-80
2021/11/15 07:57:15;;;;;;;75.63;46.20;;;7.90;97.80;;;;;;4899711;29;20064;-77
2021/11/15 07:59:41;;;;;;;72.17;45.03;;;8.00;97.90;;;;;;4899611;29;20028;-77
2021/11/15 08:02:08;;;;;;;72.30;43.27;;;8.00;97.80;;;;;;4882477;29;20047;-77
2021/11/15 08:04:34;;;;;;;72.77;44.77;;;8.00;97.50;;;;;;4899608;29;20123;-77
2021/11/15 08:07:00;;;;;;;75.13;46.13;;;7.90;97.30;;;;;;4898300;29;20033;-79
2021/11/15 08:09:25;;;;;;;77.37;46.07;;;7.90;97.50;;;;;;4898049;29;20127;-78
2021/11/15 08:11:55;;;;;;;99.73;52.63;;;7.90;97.70;;;;;;4898056;29;20148;-78
2021/11/15 08:14:21;;;;;;;79.03;47.03;;;7.90;97.70;;;;;;4897829;29;20047;-78
2021/11/15 08:16:47;;;;;;;75.87;44.20;;;8.00;97.80;;;;;;4898174;29;20518;-77
2021/11/15 08:19:14;;;;;;;72.63;42.40;;;8.10;97.80;;;;;;4882481;29;20128;-78
2021/11/15 08:21:40;;;;;;;73.97;41.17;;;8.10;97.40;;;;;;4898016;29;20033;-78
2021/11/15 08:24:35;;;;;;;73.37;41.53;;;8.00;97.20;;;;;;4899146;29;20375;-76
2021/11/15 08:27:03;;;;;;;79.73;45.57;;;7.90;97.20;;;;;;4898392;29;20040;-76
2021/11/15 08:29:32;;;;;;;82.30;47.87;;;7.80;97.30;;;;;;4899167;29;20037;-76
2021/11/15 08:32:03;;;;;;;77.77;44.47;;;7.80;97.50;;;;;;4897647;29;20040;-76
2021/11/15 08:34:29;;;;;;;78.77;46.30;;;7.80;97.60;;;;;;4898748;29;20044;-76
2021/11/15 08:36:55;;;;;;;80.43;44.53;;;7.80;97.60;;;;;;4897891;29;20100;-79
2021/11/15 08:39:24;;;;;;;78.37;42.83;;;7.70;97.50;;;;;;4898405;29;20461;-77
2021/11/15 08:41:55;;;;;;;80.90;46.20;;;7.70;97.60;;;;;;4897448;29;20041;-77
2021/11/15 08:44:21;;;;;;;74.90;46.23;;;7.70;97.80;;;;;;4897734;29;20041;-80
2021/11/15 08:46:52;;;;;;;78.97;45.77;;;7.70;97.80;;;;;;4897690;29;20036;-79
2021/11/15 08:49:29;;;;;;;79.63;47.73;;;7.70;97.80;;;;;;4882289;29;20041;-78
2021/11/15 08:52:00;;;;;;;83.33;47.50;;;7.60;97.90;;;;;;4899204;29;20128;-81
2021/11/15 08:54:26;;;;;;;79.20;46.93;;;7.70;98.00;;;;;;4882284;29;20040;-78
2021/11/15 08:56:56;;;;;;;76.70;43.93;;;7.70;98.00;;;;;;4897418;29;20036;-77
2021/11/15 08:59:22;;;;;;;83.03;47.07;;;7.70;97.80;;;;;;4897515;29;20493;-77
2021/11/15 09:01:49;;;;;;;79.73;44.77;;;7.80;98.00;;;;;;4896756;29;20045;-76
2021/11/15 09:04:15;;;;;;;84.80;47.87;;;7.80;97.90;;;;;;4897505;29;20054;-76
2021/11/15 09:06:42;;;;;;;80.97;46.90;;;7.80;97.90;;;;;;4898546;29;20489;-76
2021/11/15 09:09:14;;;;;;;80.17;46.37;;;7.90;97.90;;;;;;4897240;29;20043;-77
2021/11/15 09:11:48;;;;;;;80.15;46.20;;;7.80;97.60;;;;;;4898833;29;20048;-77
2021/11/15 09:14:14;;;;;;;75.57;44.53;;;7.80;97.80;;;;;;4898822;29;20041;-76
2021/11/15 09:16:41;;;;;;;83.23;47.50;;;7.80;97.80;;;;;;4881726;29;20057;-76
2021/11/15 09:19:07;;;;;;;78.30;46.70;;;7.80;98.00;;;;;;4899309;29;20064;-77
2021/11/15 09:21:33;;;;;;;80.47;47.80;;;7.80;97.80;;;;;;4882922;29;20132;-76
2021/11/15 09:23:58;;;;;;;80.00;46.40;;;7.90;97.90;;;;;;4898095;29;20041;-80
2021/11/15 09:26:27;;;;;;;79.57;46.63;;;8.00;97.90;;;;;;4897170;29;20491;-77
2021/11/15 09:28:55;;;;;;;78.37;48.13;;;8.00;97.80;;;;;;4898386;29;20120;-77
2021/11/15 09:31:21;;;;;;;77.60;47.03;;;8.00;97.60;;;;;;4897060;29;20041;-76
2021/11/15 09:33:47;;;;;;;84.20;51.00;;;8.10;97.90;;;;;;4882406;29;20389;-76
2021/11/15 09:36:15;;;;;;;76.47;47.70;;;8.10;97.70;;;;;;4897611;29;20119;-76
2021/11/15 09:38:43;;;;;;;69.93;44.00;;;8.20;97.70;;;;;;4882104;29;20123;-75
2021/11/15 09:41:09;;;;;;;73.53;46.67;;;8.20;97.60;;;;;;4897317;29;20037;-76
2021/11/15 09:43:36;;;;;;;69.20;45.70;;;8.20;97.70;;;;;;4898287;29;20520;-76
2021/11/15 09:46:11;;;;;;;70.80;43.57;;;8.20;97.60;;;;;;4897021;29;20092;-77
2021/11/15 09:48:43;;;;;;;69.27;42.43;;;8.10;97.40;;;;;;4898325;29;20036;-76
2021/11/15 09:51:09;;;;;;;72.90;41.40;;;8.00;97.60;;;;;;4897094;29;20132;-76
2021/11/15 09:53:35;;;;;;;69.50;42.93;;;8.10;97.80;;;;;;4896720;29;20068;-77
2021/11/15 09:56:03;;;;;;;65.17;37.53;;;8.10;97.90;;;;;;4897746;29;20037;-80
2021/11/15 09:58:29;;;;;;;57.37;31.73;;;8.20;97.90;;;;;;4881598;29;20040;-77
2021/11/15 10:00:56;;;;;;;59.13;34.60;;;8.30;97.80;;;;;;4897212;29;20136;-77
2021/11/15 10:03:22;;;;;;;52.97;30.97;;;8.30;97.90;;;;;;4881300;29;20064;-77
2021/11/15 10:05:48;;;;;;;61.23;32.07;;;8.40;97.70;;;;;;4881249;29;20131;-76
2021/11/15 10:08:14;;;;;;;60.00;32.37;;;8.40;97.70;;;;;;4881358;29;20135;-75
2021/11/15 10:10:55;;;;;;;52.37;30.23;;;8.40;97.90;;;;;;4881653;29;20037;-76
2021/11/15 10:13:24;;;;;;;64.83;35.77;;;8.50;97.90;;;;;;4896401;29;20076;-76
2021/11/15 10:15:51;;;;;;;66.30;36.60;;;8.40;97.60;;;;;;4896099;29;20115;-77
2021/11/15 10:18:28;;;;;;;66.77;37.33;;;8.30;97.50;;;;;;4896531;29;20079;-76
2021/11/15 10:20:54;;;;;;;63.90;35.97;;;8.20;97.70;;;;;;4896373;29;20052;-77
2021/11/15 10:23:36;;;;;;;68.40;36.30;;;8.00;97.90;;;;;;4895899;29;20052;-76
2021/11/15 10:26:23;;;;;;;75.43;38.00;;;7.90;98.20;;;;;;4897686;29;20044;-77
2021/11/15 10:28:55;;;;;;;69.40;36.83;;;7.90;98.50;;;;;;4897428;29;20032;-77
2021/11/15 10:31:47;;;;;;;72.30;38.03;;;7.80;98.50;;;;;;4896385;29;20037;-77
2021/11/15 10:34:25;;;;;;;71.03;36.03;;;7.90;98.70;;;;;;4898161;29;20172;-77
2021/11/15 10:36:53;;;;;;;65.70;35.90;;;8.00;98.90;;;;;;4897701;29;20116;-78
2021/11/15 10:39:21;;;;;;;66.67;36.10;;;8.00;98.60;;;;;;4896364;29;20338;-77
2021/11/15 10:42:39;;;;;;;68.90;36.10;;;7.80;98.50;;;;;;4896232;29;20047;-77
2021/11/15 10:45:12;;;;;;;67.40;36.77;;;7.70;98.90;;;;;;4881201;29;20060;-79
2021/11/15 10:47:40;;;;;;;65.00;34.92;;;7.80;99.40;;;;;;4897691;29;20036;-77
2021/11/15 10:50:23;;;;;;;65.53;33.53;;;7.90;99.10;;;;;;4896120;29;20047;-80
2021/11/15 10:53:18;;;;;;;63.50;34.05;;;7.90;99.10;;;;;;4896959;29;20068;-76
2021/11/15 10:56:05;;;;;;;62.13;34.50;;;7.90;99.10;;;;;;4897108;29;20121;-77
2021/11/15 10:58:43;;;;;;;64.70;34.00;;;8.00;99.20;;;;;;4896558;29;20028;-77
2021/11/15 11:01:10;;;;;;;69.23;34.90;;;8.00;98.90;;;;;;4896147;29;20489;-80
2021/11/15 11:03:37;;;;;;;61.23;33.90;;;8.00;98.90;;;;;;4880069;29;20079;-77
2021/11/15 11:06:11;;;;;;;67.13;35.53;;;8.00;98.90;;;;;;4880546;29;20051;-77
2021/11/15 11:08:45;;;;;;;61.90;33.03;;;8.20;99.20;;;;;;4897058;29;20043;-77
2021/11/15 11:11:26;;;;;;;60.77;32.50;;;8.20;98.70;;;;;;4896279;29;20120;-78
2021/11/15 11:13:55;;;;;;;65.70;34.83;;;8.10;98.70;;;;;;4900403;29;20351;-77
2021/11/15 11:16:43;;;;;;;60.57;32.33;;;8.10;99.00;;;;;;4899227;29;20056;-78
2021/11/15 11:19:17;;;;;;;61.07;32.57;;;8.20;99.10;;;;;;4899664;29;20040;-81
2021/11/15 11:24:58;;;;;;;59.50;31.33;;;8.20;98.80;;;;;;4900041;29;20078;-78
2021/11/15 11:27:27;;;;;;;59.00;30.93;;;8.10;98.90;;;;;;4899227;29;20036;-78
2021/11/15 11:29:54;;;;;;;58.63;31.90;;;8.10;99.00;;;;;;4883702;29;20043;-79
2021/11/15 11:32:24;;;;;;;57.57;29.90;;;8.20;99.10;;;;;;4899250;29;20047;-78
2021/11/15 11:34:51;;;;;;;50.83;28.70;;;8.10;99.00;;;;;;4899185;29;20105;-78
2021/11/15 11:37:19;;;;;;;48.90;26.73;;;8.10;98.80;;;;;;4899066;29;20062;-80
2021/11/15 11:39:46;;;;;;;50.17;26.40;;;8.00;98.90;;;;;;4899101;29;20036;-78
2021/11/15 11:42:15;;;;;;;52.20;27.70;;;7.80;98.90;;;;;;4884229;29;20045;-79
2021/11/15 11:44:42;;;;;;;58.40;28.80;;;7.80;99.20;;;;;;4900024;29;20097;-78
2021/11/15 11:47:11;;;;;;;48.60;25.60;;;7.80;99.50;;;;;;4899595;29;20060;-77
2021/11/15 11:49:38;;;;;;;47.47;25.67;;;7.80;99.60;;;;;;4899607;29;20044;-77
2021/11/15 11:52:09;;;;;;;54.10;28.57;;;7.90;99.60;;;;;;4899677;29;20045;-77
2021/11/15 11:54:38;;;;;;;49.63;26.37;;;8.00;99.60;;;;;;4901435;29;20033;-79
2021/11/15 11:57:07;;;;;;;50.50;26.90;;;8.20;99.40;;;;;;4901914;29;20036;-79
2021/11/15 11:59:35;;;;;;;48.80;26.00;;;8.10;99.20;;;;;;4899115;29;20401;-76
2021/11/15 12:02:08;;;;;;;50.07;26.53;;;8.20;99.00;;;;;;4900425;29;20056;-76
2021/11/15 12:04:59;;;;;;;47.63;24.33;;;8.20;98.90;;;;;;4901313;29;20047;-76
2021/11/15 12:07:34;;;;;;;46.27;24.27;;;8.10;98.60;;;;;;4901699;29;20036;-77
2021/11/15 12:10:22;;;;;;;44.10;24.13;;;8.10;98.80;;;;;;4904433;29;20032;-75
2021/11/15 12:12:50;;;;;;;46.30;25.00;;;8.00;98.60;;;;;;4895159;29;20040;-76
2021/11/15 12:15:51;;;;;;;46.30;24.70;;;8.10;98.80;;;;;;4903164;29;20441;-79
2021/11/15 12:18:24;;;;;;;47.43;25.10;;;8.20;98.80;;;;;;4900059;29;20069;-77
2021/11/15 12:21:05;;;;;;;44.20;24.77;;;8.20;98.80;;;;;;4898065;29;20059;-77
2021/11/15 12:23:40;;;;;;;42.00;23.10;;;8.40;99.00;;;;;;4897145;29;20113;-78
2021/11/15 12:26:17;;;;;;;38.23;23.17;;;8.50;98.80;;;;;;4897930;29;20077;-77
2021/11/15 12:28:47;;;;;;;42.07;23.70;;;8.50;98.70;;;;;;4897947;29;20115;-78
2021/11/15 12:31:16;;;;;;;43.20;24.90;;;8.60;98.40;;;;;;4899661;29;20048;-76
2021/11/15 12:33:43;;;;;;;40.33;24.17;;;8.50;98.30;;;;;;4899251;29;20470;-77
2021/11/15 12:36:23;;;;;;;44.07;25.10;;;8.50;98.30;;;;;;4897884;29;20096;-77
2021/11/15 12:38:59;;;;;;;40.60;23.83;;;8.70;98.40;;;;;;4898799;29;20068;-77
2021/11/15 12:41:27;;;;;;;43.33;24.37;;;8.60;97.90;;;;;;4897515;29;20041;-77
2021/11/15 12:44:14;;;;;;;41.53;22.93;;;8.80;98.30;;;;;;4898826;29;20044;-77
2021/11/15 12:46:53;;;;;;;36.80;21.73;;;8.80;97.60;;;;;;4892257;29;20051;-77